»·PEaware :: SWA462 KLAS-KOAK

SWA462 :: KLAS-KOAK

FLIGHT INFORMATION

Flight Status: Arrived
Operator:
Southwest Airlines
More flights by this operator :: More flights under this callsign
Pilot: Ben F. (13029)
Aircraft: BOEING 737-700
(B737)
More flights by this aircraft type
Origin: KLAS McCarran Intl
United States
Destination: KOAK Metro Oakland Intl
United States
More flights between these airports :: More routes between these airports
Route: SHEAD1 KENNO RUSME OAKES2
File this flight plan on PilotEdge
Remarks: RMK / SIMBRIEF
Altitude:
(Current/Filed)
38,000ft
Speed:
(Current/Filed)
454kts
Departed: 02-Jan-20 06:35 PM
Arrived: 02-Jan-20 07:46 PM
Distance/Time
Traveled:
353nm/1:11
Distance/Time
To Go:
Arrived

Flight Plot

Page will automatically refresh every two minutes.

Flight plan parsing failed; only flown route is shown


Map Options




Map Legend


Flown Route
Filed Route
Departure Airport
Arrival Airport
Navaid (VOR, NDB)
Fix

Horizontal Profiles

Position Reports

Time Latitude Longitude Heading Altitude Ground
Speed
02-Jan-20 18:12 36.079887 -115.147194 57 2118ft 0kts
02-Jan-20 18:13 36.079887 -115.147194 57 2118ft 0kts
02-Jan-20 18:14 36.079887 -115.147194 57 2118ft 0kts
02-Jan-20 18:15 36.079887 -115.147194 57 2118ft 0kts
02-Jan-20 18:16 36.079887 -115.147194 57 2118ft 0kts
02-Jan-20 18:17 36.079887 -115.147194 57 2118ft 0kts
02-Jan-20 18:18 36.079887 -115.147194 57 2118ft 0kts
02-Jan-20 18:19 36.079887 -115.147194 57 2118ft 0kts
02-Jan-20 18:20 36.079886 -115.147194 57 2118ft 0kts
02-Jan-20 18:21 36.079886 -115.147194 57 2118ft 0kts
02-Jan-20 18:22 36.079886 -115.147194 57 2118ft 0kts
02-Jan-20 18:23 36.079886 -115.147194 57 2118ft 0kts
02-Jan-20 18:24 36.079886 -115.147194 57 2118ft 0kts
02-Jan-20 18:26 36.079930 -115.147514 161 2118ft 1kts
02-Jan-20 18:27 36.079969 -115.147533 155 2118ft 0kts
02-Jan-20 18:28 36.079969 -115.147533 155 2118ft 0kts
02-Jan-20 18:29 36.079951 -115.147523 155 2118ft 1kts
02-Jan-20 18:30 36.078557 -115.146461 106 2118ft 6kts
02-Jan-20 18:31 36.078232 -115.141859 89 2118ft 24kts
02-Jan-20 18:32 36.078242 -115.130206 91 2118ft 38kts
02-Jan-20 18:33 36.077442 -115.121539 140 2118ft 0kts
02-Jan-20 18:34 36.077266 -115.121422 157 2118ft 6kts
02-Jan-20 18:35 36.076401 -115.131272 270 2118ft 133kts
02-Jan-20 18:36 36.076824 -115.190849 272 4674ft 185kts
02-Jan-20 18:37 36.056379 -115.248844 231 6807ft 204kts
02-Jan-20 18:38 36.006299 -115.285707 201 8956ft 222kts
02-Jan-20 18:39 35.954236 -115.321752 228 8992ft 214kts
02-Jan-20 18:40 35.908757 -115.378450 234 9012ft 285kts
02-Jan-20 18:41 35.886618 -115.473788 277 11011ft 305kts
02-Jan-20 18:42 35.889116 -115.580215 278 13854ft 327kts
02-Jan-20 18:43 35.891240 -115.692295 279 16754ft 339kts
02-Jan-20 18:44 35.893098 -115.810851 280 18965ft 352kts
02-Jan-20 18:44 35.895531 -115.909837 286 18985ft 341kts
02-Jan-20 18:46 35.943037 -116.025436 320 21449ft 320kts
02-Jan-20 18:47 36.007885 -116.101018 322 23810ft 324kts
02-Jan-20 18:47 36.062881 -116.164799 323 25581ft 329kts
02-Jan-20 18:49 36.140178 -116.254504 323 28324ft 322kts
02-Jan-20 18:50 36.204259 -116.328778 324 30701ft 309kts
02-Jan-20 18:50 36.255424 -116.388028 324 32451ft 299kts
02-Jan-20 18:52 36.329648 -116.473758 324 33274ft 327kts
02-Jan-20 18:52 36.385812 -116.538737 324 33914ft 339kts
02-Jan-20 18:53 36.456598 -116.620587 323 34667ft 359kts
02-Jan-20 18:54 36.531003 -116.708121 322 35433ft 377kts
02-Jan-20 18:55 36.606592 -116.780311 332 37994ft 336kts
02-Jan-20 18:56 36.685570 -116.840978 332 37988ft 327kts
02-Jan-20 18:57 36.764591 -116.901488 332 37983ft 347kts
02-Jan-20 18:58 36.849895 -116.966869 332 37943ft 373kts
02-Jan-20 18:59 36.940644 -117.036420 331 37882ft 394kts
02-Jan-20 19:00 37.034371 -117.108247 330 37791ft 396kts
02-Jan-20 19:01 37.128227 -117.180122 329 37734ft 395kts
02-Jan-20 19:02 37.221967 -117.251870 329 37770ft 396kts
02-Jan-20 19:03 37.314063 -117.327065 323 37790ft 397kts
02-Jan-20 19:04 37.398223 -117.417145 322 37787ft 398kts
02-Jan-20 19:05 37.477006 -117.516584 307 37777ft 411kts
02-Jan-20 19:06 37.513992 -117.655406 286 37759ft 432kts
02-Jan-20 19:07 37.531651 -117.805711 287 37771ft 432kts
02-Jan-20 19:08 37.550704 -117.955315 287 37771ft 432kts
02-Jan-20 19:09 37.569982 -118.105121 287 37758ft 432kts
02-Jan-20 19:10 37.589344 -118.254148 288 37732ft 431kts
02-Jan-20 19:11 37.608822 -118.402602 288 37696ft 431kts
02-Jan-20 19:12 37.628565 -118.551640 288 37646ft 431kts
02-Jan-20 19:13 37.648254 -118.699165 288 37606ft 431kts
02-Jan-20 19:14 37.668255 -118.847868 288 37594ft 429kts
02-Jan-20 19:15 37.688409 -118.995907 287 37572ft 426kts
02-Jan-20 19:16 37.708654 -119.143167 287 37539ft 426kts
02-Jan-20 19:17 37.728947 -119.289539 288 37491ft 425kts
02-Jan-20 19:18 37.749518 -119.436570 288 37430ft 424kts
02-Jan-20 19:19 37.770199 -119.583089 288 37357ft 423kts
02-Jan-20 19:20 37.790723 -119.727686 287 37309ft 423kts
02-Jan-20 19:21 37.811735 -119.874245 288 37278ft 423kts
02-Jan-20 19:22 37.832808 -120.019895 288 37190ft 414kts
02-Jan-20 19:23 37.853081 -120.158920 288 34354ft 403kts
02-Jan-20 19:24 37.870320 -120.298158 282 32050ft 391kts
02-Jan-20 19:25 37.865301 -120.438973 271 30363ft 406kts
02-Jan-20 19:26 37.842870 -120.577379 268 27798ft 399kts
02-Jan-20 19:27 37.820271 -120.710336 267 25296ft 390kts
02-Jan-20 19:28 37.797985 -120.842591 266 22767ft 381kts
02-Jan-20 19:29 37.775596 -120.971774 265 20242ft 373kts
02-Jan-20 19:30 37.757215 -121.097662 271 19047ft 354kts
02-Jan-20 19:31 37.731069 -121.218657 266 19044ft 355kts
02-Jan-20 19:32 37.717064 -121.340887 270 17431ft 352kts
02-Jan-20 19:33 37.706009 -121.463423 269 14551ft 339kts
02-Jan-20 19:34 37.696705 -121.563012 271 12771ft 270kts
02-Jan-20 19:35 37.688341 -121.657331 268 8941ft 268kts
02-Jan-20 19:36 37.679962 -121.744208 266 6686ft 233kts
02-Jan-20 19:37 37.672153 -121.823767 264 5000ft 223kts
02-Jan-20 19:38 37.650517 -121.892226 243 4188ft 190kts
02-Jan-20 19:39 37.645344 -121.956123 290 3932ft 186kts
02-Jan-20 19:40 37.663448 -122.015603 295 3377ft 179kts
02-Jan-20 19:41 37.681901 -122.072204 294 2471ft 166kts
02-Jan-20 19:42 37.696895 -122.118348 294 1441ft 131kts
02-Jan-20 19:43 37.710783 -122.161623 294 691ft 132kts
02-Jan-20 19:44 37.724587 -122.204376 292 46ft 129kts
02-Jan-20 19:45 37.729744 -122.219505 356 11ft 6kts
02-Jan-20 19:46 37.730144 -122.219283 35 11ft 3kts
02-Jan-20 19:47 37.731059 -122.215171 51 11ft 0kts

Navigation Log

Ident Type
Flight plan parsing failed, navigation log unavailable